createdAt,value
2018-01-10T00:03:37.377Z,1010.72
2018-01-10T00:08:37.305Z,1010.65
2018-01-10T00:13:37.231Z,1010.6
2018-01-10T00:18:37.159Z,1010.57
2018-01-10T00:23:37.145Z,1010.53
2018-01-10T00:28:37.006Z,1010.53
2018-01-10T00:33:36.928Z,1010.49
2018-01-10T00:38:36.863Z,1010.52
2018-01-10T00:43:36.781Z,1010.53
2018-01-10T00:48:36.720Z,1010.52
2018-01-10T00:53:36.630Z,1010.58
2018-01-10T00:58:36.557Z,1010.59
2018-01-10T01:03:36.480Z,1010.57
2018-01-10T01:08:36.408Z,1010.53
2018-01-10T01:13:36.330Z,1010.6
2018-01-10T01:18:36.255Z,1010.57
2018-01-10T01:23:36.176Z,1010.58
2018-01-10T01:28:36.096Z,1010.56
2018-01-10T01:33:36.025Z,1010.49
2018-01-10T01:38:35.955Z,1010.51
2018-01-10T01:43:35.872Z,1010.55
2018-01-10T01:48:35.794Z,1010.58
2018-01-10T01:53:35.720Z,1010.58
2018-01-10T01:58:35.656Z,1010.55
2018-01-10T02:03:35.574Z,1010.49
2018-01-10T02:08:35.496Z,1010.42
2018-01-10T02:13:35.420Z,1010.39
2018-01-10T02:18:35.341Z,1010.41
2018-01-10T02:23:35.290Z,1010.39
2018-01-10T02:28:35.191Z,1010.38
2018-01-10T02:33:35.116Z,1010.36
2018-01-10T02:38:35.040Z,1010.29
2018-01-10T02:43:34.968Z,1010.25
2018-01-10T02:48:34.962Z,1010.31
2018-01-10T02:53:34.809Z,1010.28
2018-01-10T02:58:34.741Z,1010.24
2018-01-10T03:03:34.658Z,1010.25
2018-01-10T03:08:34.586Z,1010.19
2018-01-10T03:13:34.508Z,1010.23
2018-01-10T03:18:34.429Z,1010.26
2018-01-10T03:23:34.359Z,1010.3
2018-01-10T03:28:34.291Z,1010.3
2018-01-10T03:33:34.212Z,1010.3
2018-01-10T03:38:34.137Z,1010.27
2018-01-10T03:43:34.061Z,1010.23
2018-01-10T03:48:33.989Z,1010.27
2018-01-10T03:53:33.916Z,1010.2
2018-01-10T03:58:33.845Z,1010.12
2018-01-10T04:03:33.769Z,1010.15
2018-01-10T04:08:33.697Z,1010.17
2018-01-10T04:13:33.625Z,1010.14
2018-01-10T04:18:33.547Z,1010.14
2018-01-10T04:23:33.538Z,1010.17
2018-01-10T04:28:33.389Z,1010.11
2018-01-10T04:33:33.309Z,1010.08
2018-01-10T04:38:33.233Z,1010.01
2018-01-10T04:43:33.156Z,1009.93
2018-01-10T04:48:33.115Z,1009.89
2018-01-10T04:53:33.002Z,1009.87
2018-01-10T04:58:32.915Z,1009.86
2018-01-10T05:03:32.837Z,1009.86
2018-01-10T05:08:32.754Z,1009.83
2018-01-10T05:13:32.675Z,1009.85
2018-01-10T05:18:32.590Z,1009.86
2018-01-10T05:23:32.512Z,1009.82
2018-01-10T05:28:32.431Z,1009.82
2018-01-10T05:33:32.352Z,1009.85
2018-01-10T05:38:32.265Z,1009.84
2018-01-10T05:43:32.187Z,1009.86
2018-01-10T05:48:32.104Z,1009.89
2018-01-10T05:53:32.020Z,1009.82
2018-01-10T05:58:31.944Z,1009.82
2018-01-10T06:03:31.856Z,1009.82
2018-01-10T06:08:31.776Z,1009.85
2018-01-10T06:13:31.714Z,1009.89
2018-01-10T06:18:31.610Z,1009.92
2018-01-10T06:23:31.528Z,1009.92
2018-01-10T06:28:31.446Z,1009.92
2018-01-10T06:33:31.368Z,1009.96
2018-01-10T06:38:31.292Z,1009.9
2018-01-10T06:43:31.207Z,1009.9
2018-01-10T06:48:31.187Z,1009.91
2018-01-10T06:53:31.055Z,1009.9
2018-01-10T06:58:31.000Z,1009.87
2018-01-10T07:03:30.897Z,1009.85
2018-01-10T07:08:30.828Z,1009.87
2018-01-10T07:13:30.750Z,1009.9
2018-01-10T07:18:30.676Z,1009.89
2018-01-10T07:23:30.601Z,1009.86
2018-01-10T07:28:30.525Z,1009.83
2018-01-10T07:33:30.451Z,1009.8
2018-01-10T07:38:30.385Z,1009.81
2018-01-10T07:43:30.306Z,1009.85
2018-01-10T07:48:30.229Z,1009.89
2018-01-10T07:53:30.155Z,1009.9
2018-01-10T07:58:30.081Z,1009.95
2018-01-10T08:03:30.007Z,1009.91
2018-01-10T08:08:29.929Z,1009.93
2018-01-10T08:13:29.871Z,1009.92
2018-01-10T08:18:29.783Z,1010
2018-01-10T08:23:29.707Z,1010.04
2018-01-10T08:28:29.634Z,1010.05
2018-01-10T08:33:29.561Z,1010.1
2018-01-10T08:38:29.495Z,1010.09
2018-01-10T08:43:29.411Z,1010.16
2018-01-10T08:48:29.364Z,1010.23
2018-01-10T08:53:29.260Z,1010.26
2018-01-10T08:58:29.187Z,1010.3
2018-01-10T09:03:29.115Z,1010.27
2018-01-10T09:08:29.040Z,1010.27
2018-01-10T09:13:28.963Z,1010.29
2018-01-10T09:18:28.892Z,1010.27
2018-01-10T09:23:28.807Z,1010.25
2018-01-10T09:28:28.735Z,1010.25
2018-01-10T09:33:28.663Z,1010.24
2018-01-10T09:38:28.838Z,1010.21
2018-01-10T09:43:28.508Z,1010.25
2018-01-10T09:48:28.438Z,1010.28
2018-01-10T09:53:28.364Z,1010.28
2018-01-10T09:58:28.288Z,1010.3
2018-01-10T10:03:28.222Z,1010.3
2018-01-10T10:08:28.145Z,1010.3
2018-01-10T10:13:28.096Z,1010.32
2018-01-10T10:18:27.989Z,1010.29
2018-01-10T10:23:27.934Z,1010.23
2018-01-10T10:28:27.843Z,1010.2
2018-01-10T10:33:27.776Z,1010.17
2018-01-10T10:38:27.694Z,1010.13
2018-01-10T10:43:27.629Z,1010.05
2018-01-10T10:48:27.563Z,1010.05
2018-01-10T10:53:27.482Z,1009.96
2018-01-10T10:58:27.404Z,1009.94
2018-01-10T11:03:27.336Z,1009.89
2018-01-10T11:08:27.265Z,1009.88
2018-01-10T11:13:27.188Z,1009.88
2018-01-10T11:18:27.116Z,1009.87
2018-01-10T11:23:27.044Z,1009.84
2018-01-10T11:28:26.977Z,1009.74
2018-01-10T11:33:26.900Z,1009.7
2018-01-10T11:38:26.829Z,1009.66
2018-01-10T11:43:26.757Z,1009.59
2018-01-10T11:48:26.705Z,1009.55
2018-01-10T11:53:26.611Z,1009.46
2018-01-10T11:58:26.541Z,1009.42
2018-01-10T12:03:26.465Z,1009.43
2018-01-10T12:08:26.391Z,1009.38
2018-01-10T12:13:26.337Z,1009.42
2018-01-10T12:18:26.299Z,1009.37
2018-01-10T12:23:26.174Z,1009.32
2018-01-10T12:28:26.104Z,1009.33
2018-01-10T12:33:26.025Z,1009.28
2018-01-10T12:38:25.957Z,1009.25
2018-01-10T12:43:25.877Z,1009.27
2018-01-10T12:48:25.816Z,1009.24
2018-01-10T12:53:25.732Z,1009.29
2018-01-10T12:58:25.683Z,1009.25
2018-01-10T13:03:25.582Z,1009.16
2018-01-10T13:08:25.509Z,1009.23
2018-01-10T13:13:25.436Z,1009.2
2018-01-10T13:18:25.364Z,1009.24
2018-01-10T13:23:25.347Z,1009.25
2018-01-10T13:28:25.241Z,1009.31
2018-01-10T13:33:25.142Z,1009.32
2018-01-10T13:38:25.070Z,1009.33
2018-01-10T13:43:24.998Z,1009.4
2018-01-10T13:48:24.929Z,1009.36
2018-01-10T13:53:24.858Z,1009.35
2018-01-10T13:58:24.786Z,1009.35
2018-01-10T14:03:24.719Z,1009.38
2018-01-10T14:08:24.650Z,1009.41
2018-01-10T14:13:24.577Z,1009.4
2018-01-10T14:18:24.508Z,1009.45
2018-01-10T14:23:24.448Z,1009.48
2018-01-10T14:28:24.370Z,1009.53
2018-01-10T14:33:24.298Z,1009.61
2018-01-10T14:38:24.228Z,1009.68
2018-01-10T14:43:24.156Z,1009.67
2018-01-10T14:48:24.088Z,1009.69
2018-01-10T14:53:24.022Z,1009.7
2018-01-10T14:58:24.013Z,1009.71
2018-01-10T15:03:23.894Z,1009.71
2018-01-10T15:08:23.820Z,1009.76
2018-01-10T15:13:23.762Z,1009.78
2018-01-10T15:18:23.684Z,1009.8
2018-01-10T15:23:23.618Z,1009.83
2018-01-10T15:28:23.550Z,1009.83
2018-01-10T15:33:23.538Z,1009.92
2018-01-10T15:38:23.414Z,1009.97
2018-01-10T15:43:23.342Z,1010.02
2018-01-10T15:48:23.276Z,1010.07
2018-01-10T15:53:23.212Z,1010.12
2018-01-10T15:58:23.146Z,1010.17
2018-01-10T16:03:23.080Z,1010.25
2018-01-10T16:08:23.010Z,1010.28
2018-01-10T16:13:22.946Z,1010.34
2018-01-10T16:18:22.882Z,1010.31
2018-01-10T16:23:22.814Z,1010.33
2018-01-10T16:28:22.743Z,1010.35
2018-01-10T16:33:22.680Z,1010.37
2018-01-10T16:38:22.617Z,1010.39
2018-01-10T16:43:22.545Z,1010.43
2018-01-10T16:48:22.496Z,1010.39
2018-01-10T16:53:22.407Z,1010.41
2018-01-10T16:58:22.341Z,1010.49
2018-01-10T17:03:22.269Z,1010.5
2018-01-10T17:08:22.201Z,1010.56
2018-01-10T17:13:22.131Z,1010.64
2018-01-10T17:18:22.074Z,1010.62
2018-01-10T17:23:21.993Z,1010.64
2018-01-10T17:28:21.926Z,1010.71
2018-01-10T17:33:21.860Z,1010.72
2018-01-10T17:38:21.795Z,1010.7
2018-01-10T17:43:21.729Z,1010.78
2018-01-10T17:48:21.658Z,1010.75
2018-01-10T17:53:21.656Z,1010.8
2018-01-10T17:58:21.521Z,1010.78
2018-01-10T18:03:21.461Z,1010.78
2018-01-10T18:08:21.392Z,1010.91
2018-01-10T18:13:21.326Z,1010.91
2018-01-10T18:18:21.255Z,1010.94
2018-01-10T18:23:21.188Z,1010.9
2018-01-10T18:28:21.144Z,1010.93
2018-01-10T18:33:21.053Z,1010.95
2018-01-10T18:38:20.988Z,1010.95
2018-01-10T18:43:20.918Z,1011.03
2018-01-10T18:48:20.850Z,1011.09
2018-01-10T18:53:20.785Z,1011.12
2018-01-10T18:58:20.721Z,1011.21
2018-01-10T19:03:20.654Z,1011.26
2018-01-10T19:08:20.596Z,1011.27
2018-01-10T19:13:20.528Z,1011.27
2018-01-10T19:18:20.466Z,1011.26
2018-01-10T19:23:20.402Z,1011.33
2018-01-10T19:28:20.334Z,1011.36
2018-01-10T19:33:20.262Z,1011.36
2018-01-10T19:38:20.204Z,1011.4
2018-01-10T19:43:20.132Z,1011.42
2018-01-10T19:48:20.070Z,1011.45
2018-01-10T19:53:20.004Z,1011.55
2018-01-10T19:58:19.941Z,1011.51
2018-01-10T20:03:19.892Z,1011.52
2018-01-10T20:08:19.817Z,1011.58
2018-01-10T20:13:19.838Z,1011.63
2018-01-10T20:18:19.692Z,1011.68
2018-01-10T20:23:19.640Z,1011.76
2018-01-10T20:28:19.568Z,1011.74
2018-01-10T20:33:19.510Z,1011.79
2018-01-10T20:38:19.442Z,1011.86
2018-01-10T20:43:19.380Z,1011.89
2018-01-10T20:48:19.326Z,1011.95
2018-01-10T20:53:19.257Z,1011.93
2018-01-10T20:58:19.221Z,1011.92
2018-01-10T21:03:19.137Z,1011.93
2018-01-10T21:08:19.067Z,1011.98
2018-01-10T21:13:19.054Z,1011.96
2018-01-10T21:18:18.942Z,1012.01
2018-01-10T21:23:18.875Z,1012.03
2018-01-10T21:28:18.820Z,1012.06
2018-01-10T21:33:18.747Z,1012.12
2018-01-10T21:38:18.679Z,1012.09
2018-01-10T21:43:18.617Z,1012.09
2018-01-10T21:48:18.557Z,1012.07
2018-01-10T21:53:18.487Z,1012.15
2018-01-10T21:58:18.435Z,1012.17
2018-01-10T22:03:18.350Z,1012.17
2018-01-10T22:08:18.291Z,1012.17
2018-01-10T22:13:18.220Z,1012.16
2018-01-10T22:18:18.165Z,1012.14
2018-01-10T22:23:18.145Z,1012.12
2018-01-10T22:28:18.025Z,1012.13
2018-01-10T22:33:17.977Z,1012.17
2018-01-10T22:38:18.373Z,1012.23
2018-01-10T22:43:17.828Z,1012.25
2018-01-10T22:48:17.763Z,1012.32
2018-01-10T22:53:17.684Z,1012.37
2018-01-10T22:58:17.614Z,1012.39
2018-01-10T23:03:17.544Z,1012.36
2018-01-10T23:08:17.472Z,1012.38
2018-01-10T23:13:17.402Z,1012.39
2018-01-10T23:18:17.334Z,1012.36
2018-01-10T23:23:17.331Z,1012.34
2018-01-10T23:28:17.192Z,1012.43
2018-01-10T23:33:17.120Z,1012.51
2018-01-10T23:38:17.050Z,1012.56
2018-01-10T23:43:16.978Z,1012.62
2018-01-10T23:48:16.920Z,1012.64
2018-01-10T23:53:16.836Z,1012.75
2018-01-10T23:58:16.768Z,1012.79
